sensor_id;sensor_type;location;lat;lon;timestamp;P1;durP1;ratioP1;P2;durP2;ratioP2
74898;SDS011;63458;48.210;16.338;2022-12-07T00:02:10;14.10;;;8.82;;
74898;SDS011;63458;48.210;16.338;2022-12-07T00:04:36;18.15;;;11.80;;
74898;SDS011;63458;48.210;16.338;2022-12-07T00:07:02;15.35;;;10.35;;
74898;SDS011;63458;48.210;16.338;2022-12-07T00:09:29;23.00;;;13.95;;
74898;SDS011;63458;48.210;16.338;2022-12-07T00:11:55;20.85;;;13.25;;
74898;SDS011;63458;48.210;16.338;2022-12-07T00:14:21;11.85;;;7.00;;
74898;SDS011;63458;48.210;16.338;2022-12-07T00:16:48;13.15;;;7.43;;
74898;SDS011;63458;48.210;16.338;2022-12-07T00:19:14;14.68;;;8.63;;
74898;SDS011;63458;48.210;16.338;2022-12-07T00:21:40;15.15;;;7.97;;
74898;SDS011;63458;48.210;16.338;2022-12-07T00:24:06;13.73;;;8.23;;
74898;SDS011;63458;48.210;16.338;2022-12-07T00:26:34;12.93;;;7.45;;
74898;SDS011;63458;48.210;16.338;2022-12-07T00:29:01;13.20;;;7.43;;
74898;SDS011;63458;48.210;16.338;2022-12-07T00:31:28;13.70;;;8.27;;
74898;SDS011;63458;48.210;16.338;2022-12-07T00:33:54;14.27;;;9.13;;
74898;SDS011;63458;48.210;16.338;2022-12-07T00:36:21;14.40;;;8.73;;
74898;SDS011;63458;48.210;16.338;2022-12-07T00:38:48;14.02;;;8.77;;
74898;SDS011;63458;48.210;16.338;2022-12-07T00:41:15;16.50;;;8.93;;
74898;SDS011;63458;48.210;16.338;2022-12-07T00:43:41;16.88;;;10.07;;
74898;SDS011;63458;48.210;16.338;2022-12-07T00:46:08;15.88;;;9.73;;
74898;SDS011;63458;48.210;16.338;2022-12-07T00:48:34;14.38;;;9.80;;
74898;SDS011;63458;48.210;16.338;2022-12-07T00:51:00;15.65;;;12.65;;
74898;SDS011;63458;48.210;16.338;2022-12-07T00:53:27;15.25;;;9.63;;
74898;SDS011;63458;48.210;16.338;2022-12-07T00:55:53;17.08;;;10.88;;
74898;SDS011;63458;48.210;16.338;2022-12-07T00:58:21;18.13;;;10.98;;
74898;SDS011;63458;48.210;16.338;2022-12-07T01:00:47;17.00;;;10.68;;
74898;SDS011;63458;48.210;16.338;2022-12-07T01:03:14;15.05;;;9.32;;
74898;SDS011;63458;48.210;16.338;2022-12-07T01:05:40;16.63;;;10.13;;
74898;SDS011;63458;48.210;16.338;2022-12-07T01:08:14;14.93;;;9.68;;
74898;SDS011;63458;48.210;16.338;2022-12-07T01:10:40;16.30;;;10.98;;
74898;SDS011;63458;48.210;16.338;2022-12-07T01:13:06;17.85;;;10.40;;
74898;SDS011;63458;48.210;16.338;2022-12-07T01:15:32;15.40;;;10.35;;
74898;SDS011;63458;48.210;16.338;2022-12-07T01:17:58;16.85;;;11.30;;
74898;SDS011;63458;48.210;16.338;2022-12-07T01:20:24;18.20;;;11.52;;
74898;SDS011;63458;48.210;16.338;2022-12-07T01:22:50;18.33;;;10.80;;
74898;SDS011;63458;48.210;16.338;2022-12-07T01:25:16;17.08;;;11.23;;
74898;SDS011;63458;48.210;16.338;2022-12-07T01:27:42;16.90;;;11.13;;
74898;SDS011;63458;48.210;16.338;2022-12-07T01:30:09;16.73;;;10.52;;
74898;SDS011;63458;48.210;16.338;2022-12-07T01:32:35;15.38;;;10.18;;
74898;SDS011;63458;48.210;16.338;2022-12-07T01:35:02;17.92;;;11.48;;
74898;SDS011;63458;48.210;16.338;2022-12-07T01:37:28;17.38;;;11.45;;
74898;SDS011;63458;48.210;16.338;2022-12-07T01:39:54;19.52;;;12.07;;
74898;SDS011;63458;48.210;16.338;2022-12-07T01:42:20;18.83;;;11.25;;
74898;SDS011;63458;48.210;16.338;2022-12-07T01:47:30;17.95;;;11.32;;
74898;SDS011;63458;48.210;16.338;2022-12-07T01:49:56;18.75;;;11.00;;
74898;SDS011;63458;48.210;16.338;2022-12-07T01:52:24;20.98;;;11.80;;
74898;SDS011;63458;48.210;16.338;2022-12-07T01:54:53;18.00;;;12.68;;
74898;SDS011;63458;48.210;16.338;2022-12-07T01:59:47;16.95;;;10.75;;
74898;SDS011;63458;48.210;16.338;2022-12-07T02:05:13;17.83;;;10.85;;
74898;SDS011;63458;48.210;16.338;2022-12-07T02:07:39;19.75;;;12.38;;
74898;SDS011;63458;48.210;16.338;2022-12-07T02:10:13;18.13;;;11.15;;
74898;SDS011;63458;48.210;16.338;2022-12-07T02:12:39;17.08;;;11.05;;
74898;SDS011;63458;48.210;16.338;2022-12-07T02:15:05;18.15;;;11.65;;
74898;SDS011;63458;48.210;16.338;2022-12-07T02:17:32;19.38;;;12.55;;
74898;SDS011;63458;48.210;16.338;2022-12-07T02:30:17;18.15;;;11.55;;
74898;SDS011;63458;48.210;16.338;2022-12-07T02:40:17;17.27;;;10.85;;
74898;SDS011;63458;48.210;16.338;2022-12-07T02:42:45;16.08;;;9.55;;
74898;SDS011;63458;48.210;16.338;2022-12-07T02:45:13;16.73;;;9.75;;
74898;SDS011;63458;48.210;16.338;2022-12-07T02:50:07;15.25;;;9.38;;
74898;SDS011;63458;48.210;16.338;2022-12-07T02:52:33;15.80;;;9.27;;
74898;SDS011;63458;48.210;16.338;2022-12-07T02:54:59;18.08;;;10.55;;
74898;SDS011;63458;48.210;16.338;2022-12-07T02:58:03;17.08;;;10.00;;
74898;SDS011;63458;48.210;16.338;2022-12-07T03:00:18;16.73;;;10.27;;
74898;SDS011;63458;48.210;16.338;2022-12-07T03:02:55;17.67;;;10.45;;
74898;SDS011;63458;48.210;16.338;2022-12-07T03:10:24;18.52;;;12.20;;
74898;SDS011;63458;48.210;16.338;2022-12-07T03:13:10;19.35;;;11.20;;
74898;SDS011;63458;48.210;16.338;2022-12-07T03:18:22;15.52;;;8.82;;
74898;SDS011;63458;48.210;16.338;2022-12-07T03:20:50;19.80;;;10.98;;
74898;SDS011;63458;48.210;16.338;2022-12-07T03:23:17;16.63;;;10.48;;
74898;SDS011;63458;48.210;16.338;2022-12-07T03:25:46;16.80;;;9.60;;
74898;SDS011;63458;48.210;16.338;2022-12-07T03:28:13;15.23;;;9.70;;
74898;SDS011;63458;48.210;16.338;2022-12-07T03:33:15;16.23;;;10.50;;
74898;SDS011;63458;48.210;16.338;2022-12-07T03:35:44;15.80;;;9.70;;
74898;SDS011;63458;48.210;16.338;2022-12-07T03:40:39;14.85;;;9.15;;
74898;SDS011;63458;48.210;16.338;2022-12-07T03:43:06;16.15;;;9.77;;
74898;SDS011;63458;48.210;16.338;2022-12-07T03:45:39;16.33;;;10.07;;
74898;SDS011;63458;48.210;16.338;2022-12-07T03:50:35;14.73;;;8.18;;
74898;SDS011;63458;48.210;16.338;2022-12-07T03:53:15;14.80;;;8.75;;
74898;SDS011;63458;48.210;16.338;2022-12-07T03:55:42;17.60;;;9.65;;
74898;SDS011;63458;48.210;16.338;2022-12-07T03:58:11;15.15;;;9.52;;
74898;SDS011;63458;48.210;16.338;2022-12-07T04:00:38;15.05;;;8.60;;
74898;SDS011;63458;48.210;16.338;2022-12-07T04:03:04;15.18;;;8.73;;
74898;SDS011;63458;48.210;16.338;2022-12-07T04:05:30;14.90;;;9.20;;
74898;SDS011;63458;48.210;16.338;2022-12-07T04:07:56;12.85;;;8.13;;
74898;SDS011;63458;48.210;16.338;2022-12-07T04:10:22;14.55;;;9.10;;
74898;SDS011;63458;48.210;16.338;2022-12-07T04:12:48;15.07;;;8.98;;
74898;SDS011;63458;48.210;16.338;2022-12-07T04:15:14;14.88;;;8.32;;
74898;SDS011;63458;48.210;16.338;2022-12-07T04:17:40;16.17;;;8.40;;
74898;SDS011;63458;48.210;16.338;2022-12-07T04:20:06;15.70;;;8.90;;
74898;SDS011;63458;48.210;16.338;2022-12-07T04:22:32;15.38;;;8.80;;
74898;SDS011;63458;48.210;16.338;2022-12-07T04:24:58;15.60;;;9.15;;
74898;SDS011;63458;48.210;16.338;2022-12-07T04:27:24;14.07;;;8.23;;
74898;SDS011;63458;48.210;16.338;2022-12-07T04:29:50;16.05;;;8.38;;
74898;SDS011;63458;48.210;16.338;2022-12-07T04:32:16;15.50;;;9.05;;
74898;SDS011;63458;48.210;16.338;2022-12-07T04:34:42;13.60;;;7.88;;
74898;SDS011;63458;48.210;16.338;2022-12-07T04:37:09;15.43;;;8.93;;
74898;SDS011;63458;48.210;16.338;2022-12-07T04:39:35;14.75;;;8.63;;
74898;SDS011;63458;48.210;16.338;2022-12-07T04:42:01;15.93;;;9.65;;
74898;SDS011;63458;48.210;16.338;2022-12-07T04:44:27;13.82;;;8.80;;
74898;SDS011;63458;48.210;16.338;2022-12-07T04:46:54;15.88;;;9.25;;
74898;SDS011;63458;48.210;16.338;2022-12-07T04:49:20;13.77;;;8.77;;
74898;SDS011;63458;48.210;16.338;2022-12-07T04:51:46;13.90;;;8.68;;
74898;SDS011;63458;48.210;16.338;2022-12-07T04:54:13;14.18;;;8.57;;
74898;SDS011;63458;48.210;16.338;2022-12-07T04:56:39;14.55;;;8.48;;
74898;SDS011;63458;48.210;16.338;2022-12-07T04:59:05;14.32;;;8.27;;
74898;SDS011;63458;48.210;16.338;2022-12-07T05:01:31;14.57;;;8.43;;
74898;SDS011;63458;48.210;16.338;2022-12-07T05:03:58;15.13;;;8.82;;
74898;SDS011;63458;48.210;16.338;2022-12-07T05:06:24;15.40;;;8.40;;
74898;SDS011;63458;48.210;16.338;2022-12-07T05:08:50;15.13;;;8.40;;
74898;SDS011;63458;48.210;16.338;2022-12-07T05:11:16;15.15;;;8.55;;
74898;SDS011;63458;48.210;16.338;2022-12-07T05:14:01;14.35;;;8.27;;
74898;SDS011;63458;48.210;16.338;2022-12-07T05:16:28;12.63;;;7.60;;
74898;SDS011;63458;48.210;16.338;2022-12-07T05:18:54;14.15;;;7.57;;
74898;SDS011;63458;48.210;16.338;2022-12-07T05:21:20;13.60;;;8.40;;
74898;SDS011;63458;48.210;16.338;2022-12-07T05:23:46;13.05;;;7.47;;
74898;SDS011;63458;48.210;16.338;2022-12-07T05:26:12;12.27;;;7.47;;
74898;SDS011;63458;48.210;16.338;2022-12-07T05:28:38;12.77;;;7.82;;
74898;SDS011;63458;48.210;16.338;2022-12-07T05:31:04;13.63;;;8.50;;
74898;SDS011;63458;48.210;16.338;2022-12-07T05:33:30;12.82;;;7.28;;
74898;SDS011;63458;48.210;16.338;2022-12-07T05:35:56;13.63;;;7.78;;
74898;SDS011;63458;48.210;16.338;2022-12-07T05:38:22;12.65;;;7.00;;
74898;SDS011;63458;48.210;16.338;2022-12-07T05:40:50;12.13;;;6.68;;
74898;SDS011;63458;48.210;16.338;2022-12-07T05:43:15;12.45;;;8.20;;
74898;SDS011;63458;48.210;16.338;2022-12-07T05:45:42;11.65;;;7.90;;
74898;SDS011;63458;48.210;16.338;2022-12-07T05:48:08;12.60;;;7.15;;
74898;SDS011;63458;48.210;16.338;2022-12-07T05:50:34;12.40;;;6.03;;
74898;SDS011;63458;48.210;16.338;2022-12-07T05:53:00;13.10;;;7.30;;
74898;SDS011;63458;48.210;16.338;2022-12-07T05:55:26;11.60;;;7.43;;
74898;SDS011;63458;48.210;16.338;2022-12-07T05:57:51;10.23;;;6.03;;
74898;SDS011;63458;48.210;16.338;2022-12-07T06:00:36;12.02;;;6.90;;
74898;SDS011;63458;48.210;16.338;2022-12-07T06:03:02;13.05;;;7.00;;
74898;SDS011;63458;48.210;16.338;2022-12-07T06:05:28;12.43;;;6.15;;
74898;SDS011;63458;48.210;16.338;2022-12-07T06:07:54;11.95;;;6.72;;
74898;SDS011;63458;48.210;16.338;2022-12-07T06:10:20;11.98;;;7.00;;
74898;SDS011;63458;48.210;16.338;2022-12-07T06:12:46;12.40;;;7.03;;
74898;SDS011;63458;48.210;16.338;2022-12-07T06:15:12;13.50;;;8.68;;
74898;SDS011;63458;48.210;16.338;2022-12-07T06:17:38;13.30;;;7.15;;
74898;SDS011;63458;48.210;16.338;2022-12-07T06:20:05;13.43;;;8.07;;
74898;SDS011;63458;48.210;16.338;2022-12-07T06:22:31;11.10;;;6.35;;
74898;SDS011;63458;48.210;16.338;2022-12-07T06:24:57;11.25;;;6.70;;
74898;SDS011;63458;48.210;16.338;2022-12-07T06:27:23;10.88;;;5.68;;
74898;SDS011;63458;48.210;16.338;2022-12-07T06:29:49;11.95;;;7.00;;
74898;SDS011;63458;48.210;16.338;2022-12-07T06:32:15;12.70;;;6.43;;
74898;SDS011;63458;48.210;16.338;2022-12-07T06:34:41;12.25;;;6.65;;
74898;SDS011;63458;48.210;16.338;2022-12-07T06:37:07;15.93;;;6.15;;
74898;SDS011;63458;48.210;16.338;2022-12-07T06:39:33;18.05;;;7.72;;
74898;SDS011;63458;48.210;16.338;2022-12-07T06:41:59;34.53;;;10.50;;
74898;SDS011;63458;48.210;16.338;2022-12-07T06:44:25;19.40;;;8.30;;
74898;SDS011;63458;48.210;16.338;2022-12-07T06:46:51;31.52;;;10.00;;
74898;SDS011;63458;48.210;16.338;2022-12-07T06:49:18;15.85;;;6.93;;
74898;SDS011;63458;48.210;16.338;2022-12-07T06:51:44;12.68;;;7.82;;
74898;SDS011;63458;48.210;16.338;2022-12-07T06:54:11;12.95;;;7.43;;
74898;SDS011;63458;48.210;16.338;2022-12-07T06:56:37;12.60;;;6.97;;
74898;SDS011;63458;48.210;16.338;2022-12-07T06:59:03;11.13;;;6.53;;
74898;SDS011;63458;48.210;16.338;2022-12-07T07:03:57;11.38;;;5.97;;
74898;SDS011;63458;48.210;16.338;2022-12-07T07:06:23;11.32;;;5.88;;
74898;SDS011;63458;48.210;16.338;2022-12-07T07:08:49;11.98;;;6.32;;
74898;SDS011;63458;48.210;16.338;2022-12-07T07:11:15;12.57;;;6.20;;
74898;SDS011;63458;48.210;16.338;2022-12-07T07:13:42;12.23;;;6.38;;
74898;SDS011;63458;48.210;16.338;2022-12-07T07:16:08;12.23;;;6.30;;
74898;SDS011;63458;48.210;16.338;2022-12-07T07:18:34;11.82;;;6.50;;
74898;SDS011;63458;48.210;16.338;2022-12-07T07:21:00;11.65;;;6.30;;
74898;SDS011;63458;48.210;16.338;2022-12-07T07:23:26;10.85;;;5.82;;
74898;SDS011;63458;48.210;16.338;2022-12-07T07:25:52;12.02;;;6.13;;
74898;SDS011;63458;48.210;16.338;2022-12-07T07:28:19;10.70;;;6.55;;
74898;SDS011;63458;48.210;16.338;2022-12-07T07:30:45;10.18;;;6.22;;
74898;SDS011;63458;48.210;16.338;2022-12-07T07:33:11;12.30;;;6.38;;
74898;SDS011;63458;48.210;16.338;2022-12-07T07:35:37;12.30;;;6.20;;
74898;SDS011;63458;48.210;16.338;2022-12-07T07:38:04;11.05;;;6.65;;
74898;SDS011;63458;48.210;16.338;2022-12-07T07:40:30;12.13;;;6.50;;
74898;SDS011;63458;48.210;16.338;2022-12-07T07:42:56;12.23;;;6.57;;
74898;SDS011;63458;48.210;16.338;2022-12-07T07:45:24;11.65;;;7.07;;
74898;SDS011;63458;48.210;16.338;2022-12-07T07:47:50;10.20;;;5.78;;
74898;SDS011;63458;48.210;16.338;2022-12-07T07:50:16;10.35;;;5.88;;
74898;SDS011;63458;48.210;16.338;2022-12-07T07:52:43;10.55;;;6.03;;
74898;SDS011;63458;48.210;16.338;2022-12-07T07:55:09;10.50;;;5.75;;
74898;SDS011;63458;48.210;16.338;2022-12-07T07:57:35;11.60;;;6.72;;
74898;SDS011;63458;48.210;16.338;2022-12-07T08:00:05;10.30;;;5.75;;
74898;SDS011;63458;48.210;16.338;2022-12-07T08:02:32;10.68;;;5.57;;
74898;SDS011;63458;48.210;16.338;2022-12-07T08:04:58;14.60;;;6.45;;
74898;SDS011;63458;48.210;16.338;2022-12-07T08:07:24;16.27;;;6.90;;
74898;SDS011;63458;48.210;16.338;2022-12-07T08:09:50;10.35;;;5.78;;
74898;SDS011;63458;48.210;16.338;2022-12-07T08:12:17;9.82;;;5.97;;
74898;SDS011;63458;48.210;16.338;2022-12-07T08:14:43;11.30;;;6.05;;
74898;SDS011;63458;48.210;16.338;2022-12-07T08:17:09;11.25;;;5.57;;
74898;SDS011;63458;48.210;16.338;2022-12-07T08:19:35;11.00;;;6.13;;
74898;SDS011;63458;48.210;16.338;2022-12-07T08:22:01;10.68;;;5.90;;
74898;SDS011;63458;48.210;16.338;2022-12-07T08:24:27;11.43;;;5.88;;
74898;SDS011;63458;48.210;16.338;2022-12-07T08:26:53;11.32;;;6.30;;
74898;SDS011;63458;48.210;16.338;2022-12-07T08:29:19;17.17;;;6.55;;
74898;SDS011;63458;48.210;16.338;2022-12-07T08:31:45;14.38;;;7.03;;
74898;SDS011;63458;48.210;16.338;2022-12-07T08:34:12;12.75;;;7.03;;
74898;SDS011;63458;48.210;16.338;2022-12-07T08:36:38;12.75;;;6.80;;
74898;SDS011;63458;48.210;16.338;2022-12-07T08:39:04;12.50;;;6.22;;
74898;SDS011;63458;48.210;16.338;2022-12-07T08:41:31;10.65;;;6.32;;
74898;SDS011;63458;48.210;16.338;2022-12-07T08:43:57;10.05;;;6.32;;
74898;SDS011;63458;48.210;16.338;2022-12-07T08:49:05;9.15;;;5.70;;
74898;SDS011;63458;48.210;16.338;2022-12-07T08:51:33;10.57;;;6.50;;
74898;SDS011;63458;48.210;16.338;2022-12-07T08:54:00;9.95;;;6.60;;
74898;SDS011;63458;48.210;16.338;2022-12-07T08:56:27;10.27;;;6.45;;
74898;SDS011;63458;48.210;16.338;2022-12-07T08:58:53;9.52;;;5.75;;
74898;SDS011;63458;48.210;16.338;2022-12-07T09:01:21;10.35;;;5.57;;
74898;SDS011;63458;48.210;16.338;2022-12-07T09:03:47;9.50;;;6.03;;
74898;SDS011;63458;48.210;16.338;2022-12-07T09:06:13;9.13;;;5.55;;
74898;SDS011;63458;48.210;16.338;2022-12-07T09:08:40;9.75;;;6.15;;
74898;SDS011;63458;48.210;16.338;2022-12-07T09:11:07;10.75;;;6.13;;
74898;SDS011;63458;48.210;16.338;2022-12-07T09:13:34;10.40;;;6.72;;
74898;SDS011;63458;48.210;16.338;2022-12-07T09:16:00;10.65;;;5.80;;
74898;SDS011;63458;48.210;16.338;2022-12-07T09:18:26;11.35;;;6.18;;
74898;SDS011;63458;48.210;16.338;2022-12-07T09:20:52;11.18;;;6.13;;
74898;SDS011;63458;48.210;16.338;2022-12-07T09:23:18;11.45;;;5.40;;
74898;SDS011;63458;48.210;16.338;2022-12-07T09:25:44;9.90;;;6.20;;
74898;SDS011;63458;48.210;16.338;2022-12-07T09:28:15;9.95;;;6.38;;
74898;SDS011;63458;48.210;16.338;2022-12-07T09:30:48;11.48;;;6.70;;
74898;SDS011;63458;48.210;16.338;2022-12-07T09:33:14;9.02;;;6.07;;
74898;SDS011;63458;48.210;16.338;2022-12-07T09:35:44;9.75;;;6.30;;
74898;SDS011;63458;48.210;16.338;2022-12-07T09:38:10;20.20;;;11.63;;
74898;SDS011;63458;48.210;16.338;2022-12-07T09:40:36;12.10;;;7.25;;
74898;SDS011;63458;48.210;16.338;2022-12-07T09:43:02;12.48;;;8.40;;
74898;SDS011;63458;48.210;16.338;2022-12-07T09:45:35;11.05;;;6.68;;
74898;SDS011;63458;48.210;16.338;2022-12-07T09:48:02;10.60;;;6.25;;
74898;SDS011;63458;48.210;16.338;2022-12-07T09:50:29;10.32;;;6.50;;
74898;SDS011;63458;48.210;16.338;2022-12-07T09:53:00;12.07;;;6.60;;
74898;SDS011;63458;48.210;16.338;2022-12-07T09:55:30;9.60;;;6.50;;
74898;SDS011;63458;48.210;16.338;2022-12-07T09:57:56;9.65;;;6.32;;
74898;SDS011;63458;48.210;16.338;2022-12-07T10:00:23;11.40;;;6.47;;
74898;SDS011;63458;48.210;16.338;2022-12-07T10:02:57;9.60;;;5.97;;
74898;SDS011;63458;48.210;16.338;2022-12-07T10:05:34;10.75;;;6.32;;
74898;SDS011;63458;48.210;16.338;2022-12-07T10:08:02;11.63;;;7.22;;
74898;SDS011;63458;48.210;16.338;2022-12-07T10:10:32;17.15;;;11.25;;
74898;SDS011;63458;48.210;16.338;2022-12-07T10:13:02;16.23;;;9.68;;
74898;SDS011;63458;48.210;16.338;2022-12-07T10:18:30;21.90;;;13.48;;
74898;SDS011;63458;48.210;16.338;2022-12-07T10:23:28;10.48;;;6.45;;
74898;SDS011;63458;48.210;16.338;2022-12-07T10:25:55;14.18;;;8.88;;
74898;SDS011;63458;48.210;16.338;2022-12-07T10:28:21;16.88;;;10.52;;
74898;SDS011;63458;48.210;16.338;2022-12-07T10:33:30;13.00;;;7.90;;
74898;SDS011;63458;48.210;16.338;2022-12-07T10:35:56;9.45;;;5.10;;
74898;SDS011;63458;48.210;16.338;2022-12-07T10:38:24;10.00;;;6.20;;
74898;SDS011;63458;48.210;16.338;2022-12-07T10:40:54;12.60;;;7.82;;
74898;SDS011;63458;48.210;16.338;2022-12-07T10:43:28;9.88;;;6.72;;
74898;SDS011;63458;48.210;16.338;2022-12-07T10:48:42;53.40;;;15.20;;
74898;SDS011;63458;48.210;16.338;2022-12-07T11:01:52;20.85;;;10.23;;
74898;SDS011;63458;48.210;16.338;2022-12-07T11:04:22;20.08;;;6.97;;
74898;SDS011;63458;48.210;16.338;2022-12-07T11:11:50;12.65;;;6.63;;
74898;SDS011;63458;48.210;16.338;2022-12-07T11:16:50;10.07;;;5.60;;
74898;SDS011;63458;48.210;16.338;2022-12-07T11:22:09;10.77;;;4.82;;
74898;SDS011;63458;48.210;16.338;2022-12-07T11:37:15;8.63;;;5.55;;
74898;SDS011;63458;48.210;16.338;2022-12-07T11:39:52;9.65;;;5.85;;
74898;SDS011;63458;48.210;16.338;2022-12-07T11:42:26;9.65;;;5.40;;
74898;SDS011;63458;48.210;16.338;2022-12-07T11:44:55;15.20;;;9.43;;
74898;SDS011;63458;48.210;16.338;2022-12-07T11:47:25;12.05;;;6.25;;
74898;SDS011;63458;48.210;16.338;2022-12-07T11:52:45;58.38;;;13.45;;
74898;SDS011;63458;48.210;16.338;2022-12-07T11:55:26;65.80;;;16.00;;
74898;SDS011;63458;48.210;16.338;2022-12-07T11:58:03;60.20;;;13.63;;
74898;SDS011;63458;48.210;16.338;2022-12-07T12:00:30;58.50;;;15.02;;
74898;SDS011;63458;48.210;16.338;2022-12-07T12:05:25;86.00;;;17.30;;
74898;SDS011;63458;48.210;16.338;2022-12-07T12:07:59;18.13;;;6.85;;
74898;SDS011;63458;48.210;16.338;2022-12-07T12:23:22;9.90;;;5.95;;
74898;SDS011;63458;48.210;16.338;2022-12-07T12:25:50;9.73;;;5.85;;
74898;SDS011;63458;48.210;16.338;2022-12-07T12:30:46;9.88;;;6.45;;
74898;SDS011;63458;48.210;16.338;2022-12-07T12:33:30;10.48;;;6.88;;
74898;SDS011;63458;48.210;16.338;2022-12-07T12:56:49;25.55;;;15.57;;
74898;SDS011;63458;48.210;16.338;2022-12-07T12:59:28;9.70;;;5.97;;
74898;SDS011;63458;48.210;16.338;2022-12-07T13:01:56;9.10;;;5.57;;
74898;SDS011;63458;48.210;16.338;2022-12-07T13:06:51;10.10;;;5.80;;
74898;SDS011;63458;48.210;16.338;2022-12-07T13:11:35;9.45;;;5.28;;
74898;SDS011;63458;48.210;16.338;2022-12-07T13:16:47;13.02;;;6.88;;
74898;SDS011;63458;48.210;16.338;2022-12-07T13:21:58;12.80;;;5.97;;
74898;SDS011;63458;48.210;16.338;2022-12-07T13:24:24;34.95;;;11.52;;
74898;SDS011;63458;48.210;16.338;2022-12-07T13:26:51;12.00;;;6.47;;
74898;SDS011;63458;48.210;16.338;2022-12-07T13:29:21;20.42;;;7.88;;
74898;SDS011;63458;48.210;16.338;2022-12-07T13:31:52;11.32;;;6.28;;
74898;SDS011;63458;48.210;16.338;2022-12-07T13:34:31;10.70;;;5.85;;
74898;SDS011;63458;48.210;16.338;2022-12-07T13:36:59;23.45;;;8.65;;
74898;SDS011;63458;48.210;16.338;2022-12-07T13:39:26;17.73;;;7.47;;
74898;SDS011;63458;48.210;16.338;2022-12-07T13:41:53;15.15;;;6.75;;
74898;SDS011;63458;48.210;16.338;2022-12-07T13:44:21;12.27;;;6.75;;
74898;SDS011;63458;48.210;16.338;2022-12-07T13:49:21;14.05;;;6.57;;
74898;SDS011;63458;48.210;16.338;2022-12-07T13:51:48;11.85;;;6.20;;
74898;SDS011;63458;48.210;16.338;2022-12-07T13:54:14;10.35;;;5.55;;
74898;SDS011;63458;48.210;16.338;2022-12-07T13:56:46;11.27;;;6.15;;
74898;SDS011;63458;48.210;16.338;2022-12-07T13:59:23;10.98;;;6.07;;
74898;SDS011;63458;48.210;16.338;2022-12-07T14:01:50;14.90;;;8.38;;
74898;SDS011;63458;48.210;16.338;2022-12-07T14:04:38;11.55;;;6.57;;
74898;SDS011;63458;48.210;16.338;2022-12-07T14:09:58;11.90;;;6.80;;
74898;SDS011;63458;48.210;16.338;2022-12-07T14:12:25;12.93;;;6.70;;
74898;SDS011;63458;48.210;16.338;2022-12-07T14:14:51;13.07;;;6.78;;
74898;SDS011;63458;48.210;16.338;2022-12-07T14:17:19;13.60;;;6.50;;
74898;SDS011;63458;48.210;16.338;2022-12-07T14:22:33;13.15;;;6.68;;
74898;SDS011;63458;48.210;16.338;2022-12-07T14:25:16;12.00;;;6.43;;
74898;SDS011;63458;48.210;16.338;2022-12-07T14:27:59;12.23;;;6.57;;
74898;SDS011;63458;48.210;16.338;2022-12-07T14:30:34;13.00;;;6.32;;
74898;SDS011;63458;48.210;16.338;2022-12-07T14:33:01;12.25;;;6.95;;
74898;SDS011;63458;48.210;16.338;2022-12-07T14:35:28;12.98;;;7.20;;
74898;SDS011;63458;48.210;16.338;2022-12-07T14:37:54;13.23;;;7.07;;
74898;SDS011;63458;48.210;16.338;2022-12-07T14:40:24;14.90;;;8.65;;
74898;SDS011;63458;48.210;16.338;2022-12-07T14:42:57;12.30;;;7.13;;
74898;SDS011;63458;48.210;16.338;2022-12-07T14:45:23;14.50;;;7.55;;
74898;SDS011;63458;48.210;16.338;2022-12-07T14:47:49;15.50;;;8.13;;
74898;SDS011;63458;48.210;16.338;2022-12-07T14:50:16;12.95;;;7.65;;
74898;SDS011;63458;48.210;16.338;2022-12-07T14:52:46;12.10;;;7.20;;
74898;SDS011;63458;48.210;16.338;2022-12-07T14:55:14;13.35;;;7.03;;
74898;SDS011;63458;48.210;16.338;2022-12-07T14:57:42;12.95;;;7.30;;
74898;SDS011;63458;48.210;16.338;2022-12-07T15:00:09;12.50;;;7.68;;
74898;SDS011;63458;48.210;16.338;2022-12-07T15:05:01;12.93;;;7.35;;
74898;SDS011;63458;48.210;16.338;2022-12-07T15:07:27;13.77;;;7.25;;
74898;SDS011;63458;48.210;16.338;2022-12-07T15:09:53;12.73;;;7.07;;
74898;SDS011;63458;48.210;16.338;2022-12-07T15:12:20;12.27;;;8.02;;
74898;SDS011;63458;48.210;16.338;2022-12-07T15:14:46;13.90;;;7.47;;
74898;SDS011;63458;48.210;16.338;2022-12-07T15:17:12;14.52;;;7.57;;
74898;SDS011;63458;48.210;16.338;2022-12-07T15:19:38;16.05;;;9.38;;
74898;SDS011;63458;48.210;16.338;2022-12-07T15:22:04;16.17;;;9.15;;
74898;SDS011;63458;48.210;16.338;2022-12-07T15:24:30;16.67;;;8.90;;
74898;SDS011;63458;48.210;16.338;2022-12-07T15:26:56;14.07;;;7.40;;
74898;SDS011;63458;48.210;16.338;2022-12-07T15:29:22;12.27;;;7.20;;
74898;SDS011;63458;48.210;16.338;2022-12-07T15:31:49;13.18;;;8.27;;
74898;SDS011;63458;48.210;16.338;2022-12-07T15:34:15;13.32;;;8.18;;
74898;SDS011;63458;48.210;16.338;2022-12-07T15:36:41;14.25;;;7.65;;
74898;SDS011;63458;48.210;16.338;2022-12-07T15:39:07;14.55;;;8.40;;
74898;SDS011;63458;48.210;16.338;2022-12-07T15:41:34;15.30;;;8.38;;
74898;SDS011;63458;48.210;16.338;2022-12-07T15:44:01;14.95;;;7.75;;
74898;SDS011;63458;48.210;16.338;2022-12-07T15:46:45;13.25;;;7.82;;
74898;SDS011;63458;48.210;16.338;2022-12-07T15:49:13;12.75;;;7.90;;
74898;SDS011;63458;48.210;16.338;2022-12-07T15:51:39;21.77;;;14.15;;
74898;SDS011;63458;48.210;16.338;2022-12-07T15:54:06;16.42;;;9.48;;
74898;SDS011;63458;48.210;16.338;2022-12-07T15:56:32;19.75;;;10.90;;
74898;SDS011;63458;48.210;16.338;2022-12-07T15:58:58;21.75;;;12.98;;
74898;SDS011;63458;48.210;16.338;2022-12-07T16:01:24;17.73;;;10.88;;
74898;SDS011;63458;48.210;16.338;2022-12-07T16:03:50;19.38;;;11.13;;
74898;SDS011;63458;48.210;16.338;2022-12-07T16:06:16;15.40;;;8.60;;
74898;SDS011;63458;48.210;16.338;2022-12-07T16:08:43;16.63;;;9.77;;
74898;SDS011;63458;48.210;16.338;2022-12-07T16:11:10;16.95;;;9.35;;
74898;SDS011;63458;48.210;16.338;2022-12-07T16:13:36;15.95;;;9.02;;
74898;SDS011;63458;48.210;16.338;2022-12-07T16:16:06;16.90;;;9.98;;
74898;SDS011;63458;48.210;16.338;2022-12-07T16:18:32;17.13;;;9.32;;
74898;SDS011;63458;48.210;16.338;2022-12-07T16:20:58;14.52;;;8.07;;
74898;SDS011;63458;48.210;16.338;2022-12-07T16:23:24;15.48;;;9.00;;
74898;SDS011;63458;48.210;16.338;2022-12-07T16:25:50;15.10;;;8.38;;
74898;SDS011;63458;48.210;16.338;2022-12-07T16:28:16;14.85;;;9.15;;
74898;SDS011;63458;48.210;16.338;2022-12-07T16:30:42;15.65;;;8.73;;
74898;SDS011;63458;48.210;16.338;2022-12-07T16:33:09;15.25;;;8.57;;
74898;SDS011;63458;48.210;16.338;2022-12-07T16:35:37;16.63;;;8.57;;
74898;SDS011;63458;48.210;16.338;2022-12-07T16:38:05;15.77;;;9.05;;
74898;SDS011;63458;48.210;16.338;2022-12-07T16:40:32;13.75;;;8.02;;
74898;SDS011;63458;48.210;16.338;2022-12-07T16:42:58;22.00;;;13.00;;
74898;SDS011;63458;48.210;16.338;2022-12-07T16:45:24;17.05;;;10.73;;
74898;SDS011;63458;48.210;16.338;2022-12-07T16:47:50;16.58;;;10.30;;
74898;SDS011;63458;48.210;16.338;2022-12-07T16:50:16;16.13;;;9.10;;
74898;SDS011;63458;48.210;16.338;2022-12-07T16:52:42;17.60;;;9.35;;
74898;SDS011;63458;48.210;16.338;2022-12-07T16:55:08;18.27;;;9.70;;
74898;SDS011;63458;48.210;16.338;2022-12-07T16:57:34;21.20;;;11.52;;
74898;SDS011;63458;48.210;16.338;2022-12-07T17:00:00;29.27;;;14.63;;